Time;durP1;ratioP1;P1;durP2;ratioP2;P2;SDS_P1;SDS_P2;PMS_P1;PMS_P2;Temp;Humidity;BMP_temperature;BMP_pressure;BME280_temperature;BME280_humidity;BME280_pressure;Samples;Min_cycle;Max_cycle;Signal;HPM_P1;HPM_P2
2022/09/20 00:01:11;;;;;;;7.22;1.67;;;11.30;99.90;;;;;;5090414;28;20048;-67
2022/09/20 00:03:42;;;;;;;5.70;2.05;;;11.30;99.90;;;;;;5091736;28;20036;-67
2022/09/20 00:06:11;;;;;;;9.45;1.77;;;11.20;99.90;;;;;;5090758;28;20079;-67
2022/09/20 00:08:37;;;;;;;8.90;1.73;;;11.20;99.90;;;;;;5091535;28;20082;-67
2022/09/20 00:11:06;;;;;;;14.75;2.17;;;11.20;99.90;;;;;;5091573;28;20107;-67
2022/09/20 00:13:32;;;;;;;7.90;1.70;;;11.10;99.90;;;;;;5091400;28;20040;-67
2022/09/20 00:15:58;;;;;;;11.23;1.80;;;11.10;99.90;;;;;;5091434;28;20039;-67
2022/09/20 00:18:25;;;;;;;9.07;1.67;;;11.10;99.90;;;;;;5091649;28;20400;-67
2022/09/20 00:20:51;;;;;;;9.63;1.60;;;11.10;99.90;;;;;;5091475;28;20044;-67
2022/09/20 00:23:18;;;;;;;10.38;1.90;;;11.10;99.90;;;;;;5091427;28;20086;-68
2022/09/20 00:25:45;;;;;;;7.60;1.80;;;11.00;99.90;;;;;;5090934;28;20067;-67
2022/09/20 00:28:11;;;;;;;7.95;1.83;;;11.00;99.90;;;;;;5091242;28;20113;-67
2022/09/20 00:30:37;;;;;;;9.32;2.20;;;11.00;99.90;;;;;;5091467;28;20064;-67
2022/09/20 00:33:03;;;;;;;6.95;1.45;;;10.90;99.90;;;;;;5091250;28;20097;-67
2022/09/20 00:35:30;;;;;;;6.07;1.75;;;11.00;99.90;;;;;;5091023;28;20040;-67
2022/09/20 00:37:56;;;;;;;11.55;1.85;;;10.90;99.90;;;;;;5091212;28;20123;-67
2022/09/20 00:40:23;;;;;;;11.43;2.38;;;10.90;99.90;;;;;;5091063;28;20032;-67
2022/09/20 00:42:49;;;;;;;11.50;2.15;;;10.90;99.90;;;;;;5090936;28;20036;-67
2022/09/20 00:45:26;;;;;;;7.32;1.92;;;10.90;99.90;;;;;;5091072;28;20059;-67
2022/09/20 00:47:57;;;;;;;5.93;1.80;;;10.90;99.90;;;;;;5091022;28;20118;-67
2022/09/20 00:50:45;;;;;;;10.95;1.92;;;10.80;99.90;;;;;;5090066;28;20047;-67
2022/09/20 00:53:36;;;;;;;7.00;1.67;;;10.90;99.90;;;;;;5090768;28;20044;-67
2022/09/20 00:56:08;;;;;;;10.00;2.10;;;10.80;99.90;;;;;;5090901;28;20071;-67
2022/09/20 00:58:41;;;;;;;8.27;1.92;;;10.80;99.90;;;;;;5091009;28;20082;-68
2022/09/20 01:01:07;;;;;;;9.90;1.70;;;10.80;99.90;;;;;;5090973;28;20044;-67
2022/09/20 01:03:35;;;;;;;9.18;1.90;;;10.70;99.90;;;;;;5090723;28;20131;-67
2022/09/20 01:06:04;;;;;;;7.32;2.30;;;10.70;99.90;;;;;;5090800;28;20115;-67
2022/09/20 01:08:32;;;;;;;5.50;2.13;;;10.70;99.90;;;;;;5090792;28;20036;-67
2022/09/20 01:10:58;;;;;;;6.93;1.67;;;10.60;99.90;;;;;;5090933;28;20057;-67
2022/09/20 01:13:23;;;;;;;11.45;2.20;;;10.60;99.90;;;;;;5090848;28;20036;-67
2022/09/20 01:15:50;;;;;;;6.68;1.92;;;10.60;99.90;;;;;;5089511;28;20051;-67
2022/09/20 01:18:17;;;;;;;7.60;2.00;;;10.50;99.90;;;;;;5094249;28;20044;-67
2022/09/20 01:20:44;;;;;;;8.73;2.10;;;10.50;99.90;;;;;;5095014;28;20044;-68
2022/09/20 01:23:33;;;;;;;5.05;1.95;;;10.50;99.90;;;;;;5093733;28;20122;-67
2022/09/20 01:26:37;;;;;;;7.07;1.70;;;10.50;99.90;;;;;;5094470;28;20117;-67
2022/09/20 01:29:20;;;;;;;;;;;10.50;99.90;;;;;;5095326;28;20125;-68
2022/09/20 01:31:51;;;;;;;8.30;2.08;;;10.40;99.90;;;;;;5093705;28;20306;-68
2022/09/20 01:34:34;;;;;;;6.53;1.73;;;10.50;99.90;;;;;;5094409;28;20372;-68
2022/09/20 01:37:21;;;;;;;7.35;1.98;;;10.40;99.90;;;;;;5093311;28;20040;-68
2022/09/20 01:40:12;;;;;;;7.25;2.10;;;10.40;99.90;;;;;;5094619;28;20048;-68
2022/09/20 01:42:49;;;;;;;4.20;1.60;;;10.40;99.90;;;;;;5094476;28;20035;-68
2022/09/20 01:45:26;;;;;;;6.30;2.30;;;10.40;99.90;;;;;;5094147;28;20500;-68
2022/09/20 01:47:58;;;;;;;7.05;1.88;;;10.40;99.90;;;;;;5094204;28;20040;-67
2022/09/20 01:50:55;;;;;;;10.63;1.80;;;10.40;99.90;;;;;;5094473;28;20392;-68
2022/09/20 01:53:45;;;;;;;6.68;1.73;;;10.30;99.90;;;;;;5089793;28;20514;-67
2022/09/20 01:56:34;;;;;;;9.48;1.83;;;10.30;99.90;;;;;;5094336;28;20036;-67
2022/09/20 01:59:28;;;;;;;11.73;2.00;;;10.30;99.90;;;;;;5094040;28;20512;-67
2022/09/20 02:02:25;;;;;;;7.82;1.77;;;10.30;99.90;;;;;;5092781;28;20127;-67
2022/09/20 02:05:32;;;;;;;7.60;1.60;;;10.30;99.90;;;;;;5093661;28;20040;-67
2022/09/20 02:08:27;;;;;;;9.57;2.10;;;10.30;99.90;;;;;;5093729;28;20097;-67
2022/09/20 02:11:22;;;;;;;12.15;2.05;;;10.30;99.90;;;;;;5094065;28;20121;-67
2022/09/20 02:14:05;;;;;;;9.43;1.98;;;10.40;99.90;;;;;;5093599;28;20040;-67
2022/09/20 02:16:43;;;;;;;;;;;10.30;99.90;;;;;;5076041;28;20480;-67
2022/09/20 02:19:25;;;;;;;3.60;1.50;;;10.30;99.90;;;;;;5093872;28;19924;-67
2022/09/20 02:22:21;;;;;;;11.35;2.05;;;10.30;99.90;;;;;;5092397;28;20040;-67
2022/09/20 02:25:21;;;;;;;5.32;2.03;;;10.30;99.90;;;;;;5093209;28;20036;-68
2022/09/20 02:28:17;;;;;;;6.90;1.85;;;10.30;99.90;;;;;;5093218;28;20040;-67
2022/09/20 02:31:06;;;;;;;7.38;1.63;;;10.30;99.90;;;;;;5093431;28;20043;-67
2022/09/20 02:34:06;;;;;;;6.82;1.90;;;10.30;99.90;;;;;;5093362;28;20058;-67
2022/09/20 02:37:09;;;;;;;5.97;1.55;;;10.30;99.90;;;;;;5093319;28;20074;-67
2022/09/20 02:39:44;;;;;;;5.68;1.75;;;10.30;99.90;;;;;;5092294;28;20419;-67
2022/09/20 02:42:17;;;;;;;7.18;1.80;;;10.20;99.90;;;;;;5092187;28;20052;-67
2022/09/20 02:45:21;;;;;;;9.70;1.60;;;10.20;99.90;;;;;;5091642;28;20123;-67
2022/09/20 02:47:47;;;;;;;4.45;1.75;;;10.10;99.90;;;;;;5093073;28;20032;-67
2022/09/20 02:50:28;;;;;;;8.10;1.77;;;10.10;99.90;;;;;;5091820;28;20085;-68
2022/09/20 02:53:21;;;;;;;7.50;2.08;;;10.10;99.90;;;;;;5093100;28;20032;-67
2022/09/20 02:55:53;;;;;;;;;;;10.00;99.90;;;;;;5091887;28;20040;-67
2022/09/20 02:58:54;;;;;;;2.72;1.50;;;9.90;99.90;;;;;;5093179;28;19920;-68
2022/09/20 03:01:44;;;;;;;11.32;2.40;;;9.70;99.90;;;;;;5093054;28;20055;-67
2022/09/20 03:04:09;;;;;;;5.20;1.95;;;9.70;99.90;;;;;;5092555;28;20040;-67
2022/09/20 03:07:02;;;;;;;5.30;1.73;;;9.80;99.90;;;;;;5092703;28;20043;-67
2022/09/20 03:10:02;;;;;;;2.88;1.80;;;9.70;99.90;;;;;;5092670;28;20582;-67
2022/09/20 03:12:44;;;;;;;5.05;1.70;;;9.80;99.90;;;;;;5085041;28;20102;-67
2022/09/20 03:15:39;;;;;;;6.20;1.75;;;9.70;99.90;;;;;;5092698;28;20100;-67
2022/09/20 03:18:16;;;;;;;6.93;1.95;;;9.70;99.90;;;;;;5092373;28;20469;-67
2022/09/20 03:21:00;;;;;;;3.83;1.70;;;9.70;99.90;;;;;;5092555;28;20036;-67
2022/09/20 03:23:44;;;;;;;5.38;1.42;;;9.70;99.90;;;;;;5091131;28;20094;-67
2022/09/20 03:26:18;;;;;;;6.35;1.95;;;9.70;99.90;;;;;;5092455;28;20479;-67
2022/09/20 03:29:00;;;;;;;9.55;1.98;;;9.60;99.90;;;;;;5092435;28;20040;-67
2022/09/20 03:31:59;;;;;;;6.60;1.95;;;9.60;99.90;;;;;;5092257;28;20040;-67
2022/09/20 03:34:49;;;;;;;5.55;1.73;;;9.60;99.90;;;;;;5090909;28;20079;-67
2022/09/20 03:37:30;;;;;;;4.90;1.90;;;9.60;99.90;;;;;;5092346;28;20043;-67
2022/09/20 03:40:18;;;;;;;7.05;1.63;;;9.50;99.90;;;;;;5092240;28;20044;-67
2022/09/20 03:43:03;;;;;;;5.72;1.77;;;9.50;99.90;;;;;;5092237;28;20039;-67
2022/09/20 03:45:49;;;;;;;4.13;1.60;;;9.50;99.90;;;;;;5091829;28;20131;-67
2022/09/20 03:48:24;;;;;;;4.10;1.58;;;9.50;99.90;;;;;;5092241;28;20044;-67
2022/09/20 03:51:31;;;;;;;10.52;2.22;;;9.40;99.90;;;;;;5092080;28;20144;-67
2022/09/20 03:54:26;;;;;;;7.57;2.20;;;9.50;99.90;;;;;;5091650;28;20420;-67
2022/09/20 03:57:09;;;;;;;5.00;1.67;;;9.50;99.90;;;;;;5090773;28;20044;-67
2022/09/20 04:00:19;;;;;;;11.02;1.70;;;9.50;99.90;;;;;;5090535;28;20043;-67
2022/09/20 04:02:54;;;;;;;6.70;1.80;;;9.40;99.90;;;;;;5077554;28;20064;-67
2022/09/20 04:05:46;;;;;;;8.93;2.08;;;9.40;99.90;;;;;;5090092;28;20056;-67
2022/09/20 04:08:58;;;;;;;11.38;2.15;;;9.40;99.90;;;;;;5073373;28;20048;-67
2022/09/20 04:11:47;;;;;;;5.88;1.88;;;9.40;99.90;;;;;;5048892;28;20071;-67
2022/09/20 04:14:31;;;;;;;7.25;2.00;;;9.40;99.90;;;;;;5048747;28;20057;-67
2022/09/20 04:17:16;;;;;;;3.55;1.65;;;9.40;99.90;;;;;;5075053;28;20539;-67
2022/09/20 04:20:09;;;;;;;6.25;1.67;;;9.40;99.90;;;;;;5090455;28;20074;-67
2022/09/20 04:22:35;;;;;;;3.35;1.60;;;9.30;99.90;;;;;;5091486;28;20055;-67
2022/09/20 04:25:16;;;;;;;5.50;1.75;;;9.30;99.90;;;;;;5091069;28;20044;-67
2022/09/20 04:27:50;;;;;;;2.15;1.50;;;9.30;99.90;;;;;;5090044;28;20105;-68
2022/09/20 04:30:17;;;;;;;3.08;1.48;;;9.40;99.90;;;;;;5091560;28;20055;-67
2022/09/20 04:33:04;;;;;;;5.13;1.73;;;9.50;99.90;;;;;;5090034;28;20047;-67
2022/09/20 04:38:36;;;;;;;2.95;1.50;;;9.50;99.90;;;;;;5091414;28;20051;-67
2022/09/20 04:41:27;;;;;;;2.17;1.50;;;9.60;99.90;;;;;;5091327;28;20044;-67
2022/09/20 04:43:55;;;;;;;6.28;1.60;;;9.60;99.90;;;;;;5090896;28;20044;-67
2022/09/20 04:46:54;;;;;;;6.38;1.80;;;9.70;99.90;;;;;;5091035;28;20093;-67
2022/09/20 04:49:37;;;;;;;5.90;2.10;;;9.70;99.90;;;;;;5091166;28;20162;-67
2022/09/20 04:52:27;;;;;;;5.53;1.50;;;9.70;99.90;;;;;;5089546;28;20043;-67
2022/09/20 04:55:20;;;;;;;6.38;1.60;;;9.70;99.90;;;;;;5090919;28;20040;-67
2022/09/20 04:58:00;;;;;;;4.15;1.60;;;9.70;99.90;;;;;;5089811;28;20043;-67
2022/09/20 05:00:53;;;;;;;5.75;1.70;;;9.80;99.90;;;;;;5091103;28;20040;-67
2022/09/20 05:03:43;;;;;;;6.20;1.60;;;9.80;99.90;;;;;;5089683;28;20078;-68
2022/09/20 05:06:21;;;;;;;11.05;2.22;;;9.80;99.90;;;;;;5090949;28;20080;-67
2022/09/20 05:09:25;;;;;;;8.23;2.00;;;9.90;99.90;;;;;;5090835;28;20480;-68
2022/09/20 05:12:01;;;;;;;7.38;2.17;;;9.90;99.90;;;;;;5089655;28;20040;-67
2022/09/20 05:14:57;;;;;;;8.63;1.98;;;10.00;99.90;;;;;;5089262;28;20043;-67
2022/09/20 05:17:43;;;;;;;7.82;2.20;;;10.00;99.90;;;;;;5090874;28;20149;-67
2022/09/20 05:20:43;;;;;;;3.17;1.70;;;10.10;99.90;;;;;;5090581;28;20126;-68
2022/09/20 05:23:30;;;;;;;7.43;1.88;;;10.10;99.90;;;;;;5070259;28;20044;-67
2022/09/20 05:26:16;;;;;;;8.65;2.47;;;10.10;99.90;;;;;;5088181;28;20132;-68
2022/09/20 05:28:55;;;;;;;4.93;1.90;;;10.20;99.90;;;;;;5090207;28;20040;-67
2022/09/20 05:31:50;;;;;;;3.53;1.75;;;10.20;99.90;;;;;;5089674;28;20119;-67
2022/09/20 05:34:30;;;;;;;5.28;1.80;;;10.20;99.90;;;;;;5088906;28;20075;-67
2022/09/20 05:37:00;;;;;;;7.82;2.03;;;10.20;99.90;;;;;;5089345;28;20040;-67
2022/09/20 05:39:44;;;;;;;3.75;1.65;;;10.30;99.90;;;;;;5090582;28;20048;-67
2022/09/20 05:42:33;;;;;;;2.50;1.42;;;10.30;99.90;;;;;;5090695;28;20434;-67
2022/09/20 05:45:22;;;;;;;6.97;2.17;;;10.30;99.90;;;;;;5089172;28;20396;-67
2022/09/20 05:48:31;;;;;;;6.88;2.08;;;10.30;99.90;;;;;;5090691;28;20051;-67
2022/09/20 05:51:24;;;;;;;4.60;2.10;;;10.40;99.90;;;;;;5090442;28;20071;-67
2022/09/20 05:54:01;;;;;;;8.98;2.58;;;10.40;99.90;;;;;;5090263;28;20426;-67
2022/09/20 05:56:38;;;;;;;10.07;2.20;;;10.40;99.90;;;;;;5090568;28;20492;-67
2022/09/20 05:59:45;;;;;;;12.05;1.98;;;10.50;99.90;;;;;;5089457;28;20043;-67
2022/09/20 06:02:26;;;;;;;5.03;1.65;;;10.50;99.90;;;;;;5047624;28;20513;-68
2022/09/20 06:05:41;;;;;;;9.85;1.80;;;10.50;99.90;;;;;;5033168;28;20540;-68
2022/09/20 06:08:48;;;;;;;4.95;2.55;;;10.60;99.90;;;;;;5034426;28;20128;-68
2022/09/20 06:11:38;;;;;;;5.72;2.17;;;10.60;99.90;;;;;;5034561;28;20053;-68
2022/09/20 06:14:14;;;;;;;7.90;2.58;;;10.60;99.90;;;;;;5050904;28;20037;-68
2022/09/20 06:17:04;;;;;;;7.50;2.17;;;10.70;99.90;;;;;;5051054;28;20085;-68
2022/09/20 06:19:45;;;;;;;3.47;1.80;;;10.70;99.90;;;;;;5034752;28;20460;-68
2022/09/20 06:22:24;;;;;;;9.13;2.53;;;10.70;99.90;;;;;;5050992;28;20120;-68
2022/09/20 06:25:08;;;;;;;5.63;2.00;;;10.80;99.90;;;;;;5033991;28;20128;-68
2022/09/20 06:27:49;;;;;;;5.13;1.80;;;10.80;99.90;;;;;;5050807;28;20223;-68
2022/09/20 06:30:23;;;;;;;8.07;2.10;;;10.80;99.90;;;;;;5050745;28;20827;-69
2022/09/20 06:32:52;;;;;;;7.07;1.67;;;10.80;99.90;;;;;;5034203;28;20041;-69
2022/09/20 06:35:19;;;;;;;4.68;1.70;;;10.80;99.90;;;;;;5039314;28;20048;-69
2022/09/20 06:41:27;;;;;;;5.57;1.98;;;10.90;99.90;;;;;;5092195;28;20048;-69
2022/09/20 06:43:47;;;;;;;6.40;2.10;;;10.90;99.90;;;;;;5092832;28;20539;-69
2022/09/20 06:46:14;;;;;;;2.95;1.63;;;10.90;99.90;;;;;;5093174;28;20488;-69
2022/09/20 06:48:40;;;;;;;4.07;1.67;;;11.00;99.90;;;;;;5091937;28;20040;-69
2022/09/20 06:51:08;;;;;;;6.05;1.90;;;11.00;99.90;;;;;;5093237;28;20165;-69
2022/09/20 06:53:39;;;;;;;5.05;1.95;;;11.00;99.90;;;;;;5093619;28;20040;-69
2022/09/20 06:56:07;;;;;;;8.07;2.00;;;11.00;99.90;;;;;;5090852;28;20032;-69
2022/09/20 06:58:32;;;;;;;5.05;2.03;;;11.10;99.90;;;;;;5092080;28;20048;-70
2022/09/20 07:00:58;;;;;;;6.72;1.95;;;11.10;99.90;;;;;;5090877;28;20051;-70
2022/09/20 07:03:23;;;;;;;11.50;2.38;;;11.10;99.90;;;;;;5090835;28;20076;-70
2022/09/20 07:05:49;;;;;;;7.28;1.98;;;11.10;99.90;;;;;;5091886;28;20115;-70
2022/09/20 07:08:16;;;;;;;4.80;1.92;;;11.20;99.90;;;;;;5093091;28;20055;-69
2022/09/20 07:10:42;;;;;;;6.65;2.35;;;11.20;99.90;;;;;;5084599;28;20503;-69
2022/09/20 07:13:10;;;;;;;10.20;2.70;;;11.20;99.90;;;;;;5103377;28;20036;-69
2022/09/20 07:15:36;;;;;;;5.90;2.47;;;11.20;99.90;;;;;;5098708;28;20166;-69
2022/09/20 07:18:02;;;;;;;6.05;2.10;;;11.30;99.90;;;;;;5093571;28;20412;-69
2022/09/20 07:20:27;;;;;;;8.25;2.47;;;11.40;99.90;;;;;;5093353;28;20234;-69
2022/09/20 07:22:53;;;;;;;3.28;1.67;;;11.40;99.90;;;;;;5093574;28;20043;-69
2022/09/20 07:25:19;;;;;;;3.22;2.05;;;11.40;99.90;;;;;;5093150;28;20039;-69
2022/09/20 07:27:49;;;;;;;6.03;2.00;;;11.40;99.90;;;;;;5093469;28;20044;-69
2022/09/20 07:30:16;;;;;;;6.35;2.05;;;11.40;99.90;;;;;;5093230;28;20040;-69
2022/09/20 07:32:41;;;;;;;6.97;2.50;;;11.50;99.90;;;;;;5093389;28;20036;-69
2022/09/20 07:35:09;;;;;;;7.68;1.90;;;11.50;99.90;;;;;;5092694;28;20118;-69
2022/09/20 07:37:35;;;;;;;8.38;2.20;;;11.50;99.90;;;;;;5093291;28;20040;-69
2022/09/20 07:40:01;;;;;;;4.50;1.77;;;11.50;99.90;;;;;;5091632;28;20042;-69
2022/09/20 07:42:27;;;;;;;8.70;2.72;;;11.50;99.90;;;;;;5101682;28;20048;-69
2022/09/20 07:44:54;;;;;;;4.72;1.77;;;11.60;99.90;;;;;;5084560;28;20373;-69
2022/09/20 07:47:24;;;;;;;4.65;1.70;;;11.60;99.90;;;;;;5098292;28;20050;-70
2022/09/20 07:49:50;;;;;;;8.73;2.05;;;11.70;99.90;;;;;;5110580;28;20511;-70
2022/09/20 07:52:16;;;;;;;11.63;2.35;;;11.80;99.90;;;;;;5113089;28;20063;-70
2022/09/20 07:54:41;;;;;;;7.72;2.20;;;11.80;99.90;;;;;;5112577;28;20066;-69
2022/09/20 07:57:07;;;;;;;6.85;1.92;;;11.80;99.90;;;;;;5112913;28;20073;-69
2022/09/20 07:59:32;;;;;;;6.70;2.17;;;11.90;99.90;;;;;;5112712;27;20566;-69
2022/09/20 08:01:59;;;;;;;5.85;1.73;;;12.00;99.90;;;;;;5112739;28;20047;-70
2022/09/20 08:04:25;;;;;;;10.93;1.75;;;12.00;99.90;;;;;;5112241;28;20047;-70
2022/09/20 08:06:51;;;;;;;10.68;2.00;;;12.00;99.90;;;;;;5112840;28;20074;-70
2022/09/20 08:09:18;;;;;;;8.25;1.80;;;12.10;99.90;;;;;;5112514;28;20036;-70
2022/09/20 08:11:45;;;;;;;7.00;2.30;;;12.20;99.90;;;;;;5112512;28;20043;-70
2022/09/20 08:14:15;;;;;;;6.85;1.70;;;12.20;99.90;;;;;;5112169;28;20046;-70
2022/09/20 08:16:46;;;;;;;3.00;1.45;;;12.30;99.90;;;;;;5112451;28;20415;-70
2022/09/20 08:19:17;;;;;;;6.88;1.83;;;12.30;99.90;;;;;;5112541;28;20039;-69
2022/09/20 08:21:43;;;;;;;1.45;1.15;;;12.40;99.90;;;;;;5112692;28;20036;-69
2022/09/20 08:24:09;;;;;;;5.55;1.55;;;12.40;99.90;;;;;;5112114;28;20050;-69
2022/09/20 08:26:35;;;;;;;5.32;1.50;;;12.40;99.90;;;;;;5109627;27;20035;-69
2022/09/20 08:29:01;;;;;;;7.28;1.42;;;12.50;99.90;;;;;;5111762;28;20047;-70
2022/09/20 08:31:33;;;;;;;5.95;1.60;;;12.60;99.90;;;;;;5111726;28;20043;-69
2022/09/20 08:34:02;;;;;;;10.05;1.70;;;12.60;99.90;;;;;;5110632;28;20404;-70
2022/09/20 08:36:28;;;;;;;4.68;1.50;;;12.60;99.90;;;;;;5112291;28;20038;-70
2022/09/20 08:38:54;;;;;;;3.40;1.25;;;12.70;99.90;;;;;;5112139;28;20043;-70
2022/09/20 08:41:33;;;;;;;3.17;1.20;;;12.70;99.90;;;;;;5110823;28;20575;-68
2022/09/20 08:44:03;;;;;;;4.82;1.38;;;12.80;99.90;;;;;;5099167;28;20073;-69
2022/09/20 08:46:34;;;;;;;6.93;1.20;;;12.90;99.90;;;;;;5100135;28;20062;-70
2022/09/20 08:49:03;;;;;;;5.10;1.58;;;12.90;99.90;;;;;;5099779;28;20044;-70
2022/09/20 08:51:33;;;;;;;5.15;1.05;;;12.90;99.90;;;;;;5112052;28;20040;-67
2022/09/20 08:53:59;;;;;;;160.30;16.88;;;13.10;99.90;;;;;;5111682;28;20503;-66
2022/09/20 08:56:30;;;;;;;22.35;3.35;;;13.50;99.90;;;;;;5111820;28;20043;-67
2022/09/20 08:58:58;;;;;;;6.00;1.73;;;13.80;99.90;;;;;;5110564;28;20527;-67
2022/09/20 09:01:26;;;;;;;3.90;1.48;;;13.60;99.90;;;;;;5110564;28;20075;-69
2022/09/20 09:04:00;;;;;;;5.28;1.05;;;13.50;99.90;;;;;;5110328;28;20054;-69
2022/09/20 09:06:26;;;;;;;7.30;1.48;;;13.60;99.90;;;;;;5110656;28;20039;-69
2022/09/20 09:08:55;;;;;;;4.38;1.00;;;13.50;99.90;;;;;;5110512;28;20495;-69
2022/09/20 09:11:22;;;;;;;3.83;1.30;;;13.50;99.90;;;;;;5111897;28;20032;-69
2022/09/20 09:14:03;;;;;;;5.95;1.13;;;13.50;99.90;;;;;;5111676;28;20050;-69
2022/09/20 09:16:31;;;;;;;3.65;1.20;;;13.50;99.90;;;;;;5111901;28;20043;-69
2022/09/20 09:18:57;;;;;;;7.43;1.10;;;13.50;99.90;;;;;;5108557;28;20035;-69
2022/09/20 09:21:24;;;;;;;4.60;1.30;;;13.60;99.90;;;;;;5102770;28;20446;-69
2022/09/20 09:24:14;;;;;;;4.50;1.27;;;13.60;99.90;;;;;;5090546;28;20036;-69
2022/09/20 09:26:42;;;;;;;6.72;1.38;;;13.60;99.90;;;;;;5098254;28;20047;-69
2022/09/20 09:29:25;;;;;;;2.70;0.80;;;13.60;99.90;;;;;;5098715;28;20405;-69
2022/09/20 09:31:53;;;;;;;3.92;1.10;;;13.60;99.90;;;;;;5099536;28;20081;-70
2022/09/20 09:34:34;;;;;;;3.72;1.00;;;13.70;99.90;;;;;;5104475;28;20116;-71
2022/09/20 09:36:59;;;;;;;4.82;1.15;;;13.70;99.90;;;;;;5100561;28;20033;-71
2022/09/20 09:39:32;;;;;;;4.40;1.17;;;13.70;99.90;;;;;;5103327;28;20154;-70
2022/09/20 09:42:00;;;;;;;6.40;1.23;;;13.70;99.90;;;;;;5109984;28;20095;-69
2022/09/20 09:44:28;;;;;;;8.70;1.10;;;13.70;99.90;;;;;;5114436;28;20035;-68
2022/09/20 09:46:55;;;;;;;2.78;1.00;;;13.80;99.90;;;;;;5113247;28;20534;-68
2022/09/20 09:49:34;;;;;;;2.10;0.88;;;13.80;99.90;;;;;;5102422;28;20119;-69
2022/09/20 09:52:14;;;;;;;6.15;1.08;;;13.80;99.90;;;;;;5115161;28;20036;-70
2022/09/20 09:54:46;;;;;;;3.63;1.08;;;13.80;99.90;;;;;;5106042;28;20040;-70
2022/09/20 09:57:42;;;;;;;8.43;1.20;;;13.80;99.90;;;;;;5108790;28;20085;-70
2022/09/20 10:00:16;;;;;;;4.35;1.13;;;13.90;99.90;;;;;;5105496;28;20441;-70
2022/09/20 10:03:00;;;;;;;5.43;1.25;;;13.80;99.90;;;;;;5100560;28;20039;-69
2022/09/20 10:05:50;;;;;;;6.45;0.93;;;13.80;99.90;;;;;;5114736;28;20165;-69
2022/09/20 10:08:49;;;;;;;7.18;1.15;;;13.80;99.90;;;;;;5114516;28;20408;-70
2022/09/20 10:11:18;;;;;;;8.93;1.23;;;13.80;99.90;;;;;;5113104;28;20050;-69
2022/09/20 10:13:52;;;;;;;3.80;1.15;;;13.90;99.90;;;;;;5113226;28;20119;-69
2022/09/20 10:16:42;;;;;;;4.50;0.98;;;13.90;99.90;;;;;;5114618;28;20053;-69
2022/09/20 10:19:34;;;;;;;2.80;0.85;;;14.00;99.90;;;;;;5105187;28;20082;-70
2022/09/20 10:22:34;;;;;;;4.88;1.10;;;14.10;99.90;;;;;;5108908;28;20146;-70
2022/09/20 10:25:36;;;;;;;3.72;1.13;;;14.10;99.90;;;;;;5114237;28;20067;-70
2022/09/20 10:28:26;;;;;;;4.55;0.82;;;14.20;99.90;;;;;;5114124;27;20075;-70
2022/09/20 10:31:01;;;;;;;6.97;1.17;;;14.20;99.90;;;;;;5114349;28;20666;-69
2022/09/20 10:33:43;;;;;;;2.05;0.90;;;14.30;99.90;;;;;;5107598;28;20403;-69
2022/09/20 10:36:33;;;;;;;4.72;1.40;;;14.40;99.90;;;;;;5091849;28;20044;-70
2022/09/20 10:39:29;;;;;;;4.25;1.20;;;14.50;99.90;;;;;;5096562;28;20079;-70
2022/09/20 10:45:17;;;;;;;3.92;1.23;;;14.50;99.90;;;;;;5112478;28;20180;-69
2022/09/20 10:47:55;;;;;;;6.53;1.17;;;14.60;99.90;;;;;;5111493;28;20076;-69
2022/09/20 10:50:35;;;;;;;7.05;1.20;;;14.60;99.90;;;;;;5107138;27;20075;-69
2022/09/20 10:53:15;;;;;;;5.03;1.20;;;14.70;99.90;;;;;;5103497;28;20050;-70
2022/09/20 10:56:19;;;;;;;5.13;1.08;;;14.70;99.90;;;;;;5094786;28;20518;-70
2022/09/20 10:59:16;;;;;;;6.75;1.13;;;14.70;99.90;;;;;;5112543;28;20081;-70
2022/09/20 11:02:03;;;;;;;1.65;0.82;;;14.50;99.90;;;;;;5111514;28;20043;-70
2022/09/20 11:04:51;;;;;;;4.78;0.93;;;14.40;99.90;;;;;;5100555;28;20043;-70
2022/09/20 11:07:51;;;;;;;3.38;1.30;;;14.40;99.90;;;;;;5109760;27;20644;-70
2022/09/20 11:10:45;;;;;;;5.13;0.85;;;14.40;99.90;;;;;;5104628;28;20046;-70
2022/09/20 11:13:20;;;;;;;3.40;0.73;;;14.40;99.90;;;;;;5098466;28;20054;-70
2022/09/20 11:16:28;;;;;;;4.22;0.90;;;14.40;99.90;;;;;;5112013;28;20120;-70
2022/09/20 11:19:08;;;;;;;2.53;0.88;;;14.40;99.90;;;;;;5068868;28;20078;-70
2022/09/20 11:21:59;;;;;;;5.32;0.90;;;14.40;99.90;;;;;;5052531;28;20052;-70
2022/09/20 11:24:57;;;;;;;4.95;0.70;;;14.40;99.90;;;;;;5051964;28;20464;-70
2022/09/20 11:27:41;;;;;;;3.42;0.80;;;14.40;99.90;;;;;;5052158;28;20051;-70
2022/09/20 11:30:13;;;;;;;2.28;0.90;;;14.50;99.90;;;;;;5068869;28;20056;-70
2022/09/20 11:33:06;;;;;;;6.80;0.85;;;14.50;99.90;;;;;;5052310;28;20435;-70
2022/09/20 11:35:53;;;;;;;5.93;0.80;;;14.50;99.90;;;;;;5068577;28;20106;-70
2022/09/20 11:38:32;;;;;;;3.58;0.93;;;14.60;99.90;;;;;;5055227;28;20071;-70
2022/09/20 11:41:07;;;;;;;5.90;1.77;;;14.60;99.90;;;;;;5052001;28;20037;-70
2022/09/20 11:43:35;;;;;;;4.45;1.60;;;14.70;99.90;;;;;;5068641;28;20144;-70
2022/09/20 11:46:06;;;;;;;4.90;1.10;;;14.70;99.90;;;;;;5051703;28;20040;-70
2022/09/20 11:48:37;;;;;;;6.40;4.18;;;14.70;99.90;;;;;;5069202;28;20051;-70
2022/09/20 11:51:28;;;;;;;5.78;3.40;;;14.70;99.90;;;;;;5103919;28;20067;-70
2022/09/20 11:54:03;;;;;;;3.53;1.27;;;14.80;99.90;;;;;;5092490;28;20042;-69
2022/09/20 11:56:31;;;;;;;2.35;0.90;;;14.80;99.90;;;;;;5094059;28;20032;-69
2022/09/20 11:59:02;;;;;;;2.72;0.93;;;14.90;99.90;;;;;;5089959;28;20174;-70
2022/09/20 12:01:35;;;;;;;1.50;1.13;;;14.90;99.90;;;;;;5091171;28;20405;-71
2022/09/20 12:04:21;;;;;;;;;;;15.00;99.90;;;;;;5089760;28;20040;-70
2022/09/20 12:06:54;;;;;;;4.53;0.88;;;15.00;99.90;;;;;;5090020;28;20392;-69
2022/09/20 12:09:31;;;;;;;4.03;1.08;;;15.00;99.90;;;;;;5092184;28;20036;-69
2022/09/20 12:11:58;;;;;;;6.00;0.95;;;15.00;99.90;;;;;;5090801;28;20032;-70
2022/09/20 12:14:29;;;;;;;5.75;0.73;;;15.00;99.90;;;;;;5090414;28;20085;-70
2022/09/20 12:16:55;;;;;;;2.47;0.50;;;15.00;99.90;;;;;;5090875;28;20157;-70
2022/09/20 12:19:31;;;;;;;6.43;0.90;;;15.10;99.90;;;;;;5090720;28;20032;-69
2022/09/20 12:21:59;;;;;;;2.92;0.80;;;15.00;99.90;;;;;;5090871;28;20048;-69
2022/09/20 12:24:28;;;;;;;5.78;0.95;;;15.10;99.90;;;;;;5090243;28;20117;-69
2022/09/20 12:26:58;;;;;;;4.97;1.13;;;15.00;99.90;;;;;;5089066;28;20062;-68
2022/09/20 12:29:23;;;;;;;3.08;0.80;;;15.10;99.90;;;;;;5088796;28;20043;-69
2022/09/20 12:31:55;;;;;;;4.95;1.00;;;15.10;99.90;;;;;;5089481;28;20145;-68
2022/09/20 12:34:21;;;;;;;2.88;1.30;;;15.20;99.90;;;;;;5090088;28;20040;-69
2022/09/20 12:36:52;;;;;;;3.83;0.95;;;15.20;99.90;;;;;;5088795;28;20040;-69
2022/09/20 12:39:26;;;;;;;3.25;0.77;;;15.30;99.90;;;;;;5090862;28;20051;-68
2022/09/20 12:42:01;;;;;;;6.05;1.70;;;15.40;99.90;;;;;;5090810;28;20399;-68
2022/09/20 12:44:32;;;;;;;4.82;1.20;;;15.50;99.90;;;;;;5101118;28;20040;-68
2022/09/20 12:47:02;;;;;;;7.40;1.20;;;15.50;99.90;;;;;;5111373;28;20032;-69
2022/09/20 12:53:03;;;;;;;3.47;1.27;;;15.60;99.90;;;;;;5111707;28;20491;-68
2022/09/20 12:55:51;;;;;;;8.20;1.35;;;15.70;99.90;;;;;;5101418;28;20047;-69
2022/09/20 12:58:19;;;;;;;3.13;1.02;;;15.70;99.90;;;;;;5101145;28;20105;-69
2022/09/20 13:00:58;;;;;;;7.95;1.40;;;15.70;99.90;;;;;;5106223;28;20039;-68
2022/09/20 13:03:44;;;;;;;3.15;1.10;;;15.80;99.90;;;;;;5104516;28;20043;-69
2022/09/20 13:06:18;;;;;;;6.25;1.05;;;15.80;99.90;;;;;;5111961;28;20032;-67
2022/09/20 13:08:46;;;;;;;7.53;1.30;;;15.60;99.90;;;;;;5111961;28;20035;-68
2022/09/20 13:11:43;;;;;;;7.75;1.13;;;15.70;99.90;;;;;;5110858;28;20082;-68
2022/09/20 13:14:14;;;;;;;7.35;1.02;;;15.60;99.90;;;;;;5114199;28;20114;-68
2022/09/20 13:17:11;;;;;;;9.55;1.02;;;15.50;99.90;;;;;;5116193;28;20071;-68
2022/09/20 13:19:45;;;;;;;8.82;1.17;;;15.60;99.90;;;;;;5116389;28;20048;-68
2022/09/20 13:22:21;;;;;;;4.93;1.33;;;15.50;99.90;;;;;;5116062;28;20500;-66
2022/09/20 13:24:48;;;;;;;2.85;0.80;;;15.50;99.90;;;;;;5115844;28;20044;-66
2022/09/20 13:27:22;;;;;;;5.40;1.08;;;15.50;99.90;;;;;;5115956;28;20063;-68
2022/09/20 13:29:48;;;;;;;4.07;0.98;;;15.50;99.90;;;;;;5115931;28;20563;-68
2022/09/20 13:32:34;;;;;;;5.60;1.13;;;15.50;99.90;;;;;;5116113;28;20173;-67
2022/09/20 13:35:09;;;;;;;5.28;0.98;;;15.50;99.90;;;;;;5115404;28;20051;-68
2022/09/20 13:37:55;;;;;;;5.07;0.90;;;15.50;99.90;;;;;;5115722;28;20046;-68
2022/09/20 13:40:41;;;;;;;7.80;1.35;;;15.50;99.90;;;;;;5108253;28;20065;-68
2022/09/20 13:43:40;;;;;;;7.00;0.90;;;15.50;99.90;;;;;;5115765;28;20125;-68
2022/09/20 13:46:20;;;;;;;7.90;1.20;;;15.60;99.90;;;;;;5115263;28;20088;-67
2022/09/20 13:48:47;;;;;;;3.10;0.80;;;15.70;99.90;;;;;;5115777;28;20047;-68
2022/09/20 13:51:25;;;;;;;3.60;0.90;;;15.70;99.90;;;;;;5115663;28;20167;-68
2022/09/20 13:53:51;;;;;;;2.22;0.95;;;15.70;99.90;;;;;;5115196;28;20047;-66
2022/09/20 13:56:21;;;;;;;6.25;2.05;;;15.80;99.90;;;;;;5115336;28;20040;-66
2022/09/20 13:58:48;;;;;;;4.63;1.20;;;15.80;99.90;;;;;;5115494;28;20039;-66